Time;durP1;ratioP1;P1;durP2;ratioP2;P2;SDS_P1;SDS_P2;PMS_P1;PMS_P2;Temp;Humidity;BMP_temperature;BMP_pressure;BME280_temperature;BME280_humidity;BME280_pressure;Samples;Min_cycle;Max_cycle;Signal;HPM_P1;HPM_P2
2021/10/27 00:00:35;;;;;;;;;;;;;;;10.14;83.14;100615.00;5014409;28;861;-61
2021/10/27 00:03:02;;;;;;;;;;;;;;;10.10;83.54;100618.91;5014289;28;1953;-61
2021/10/27 00:05:29;;;;;;;;;;;;;;;10.07;83.51;100601.13;5014352;28;807;-62
2021/10/27 00:07:56;;;;;;;;;;;;;;;10.10;83.60;100610.59;5014513;28;834;-61
2021/10/27 00:10:23;;;;;;;;;;;;;;;10.12;83.31;100608.25;5014216;28;862;-62
2021/10/27 00:12:49;;;;;;;;;;;;;;;10.14;83.38;100611.44;5014183;28;886;-62
2021/10/27 00:15:16;;;;;;;;;;;;;;;10.17;83.36;100611.47;5014220;28;792;-62
2021/10/27 00:17:43;;;;;;;;;;;;;;;10.19;83.35;100605.56;5014207;28;937;-62
2021/10/27 00:20:10;;;;;;;;;;;;;;;10.21;83.26;100604.00;5014063;28;849;-62
2021/10/27 00:22:37;;;;;;;;;;;;;;;10.23;82.79;100600.88;5013705;28;1981;-61
2021/10/27 00:25:04;;;;;;;;;;;;;;;10.25;82.59;100601.28;5014014;28;901;-61
2021/10/27 00:27:31;;;;;;;;;;;;;;;10.32;82.37;100600.56;5013816;28;862;-62
2021/10/27 00:29:58;;;;;;;;;;;;;;;10.36;82.08;100599.44;5013776;28;866;-62
2021/10/27 00:32:25;;;;;;;;;;;;;;;10.41;81.41;100601.03;5014024;28;862;-61
2021/10/27 00:34:52;;;;;;;;;;;;;;;10.46;81.27;100591.63;5013740;28;839;-62
2021/10/27 00:37:19;;;;;;;;;;;;;;;10.51;80.92;100591.25;5013686;28;870;-62
2021/10/27 00:39:48;;;;;;;;;;;;;;;10.52;81.03;100588.13;5013637;28;930;-62
2021/10/27 00:42:14;;;;;;;;;;;;;;;10.52;80.99;100596.41;5013690;28;1885;-62
2021/10/27 00:44:42;;;;;;;;;;;;;;;10.53;80.60;100594.44;5013542;28;889;-62
2021/10/27 00:47:10;;;;;;;;;;;;;;;10.52;80.52;100588.13;5013530;28;811;-62
2021/10/27 00:49:38;;;;;;;;;;;;;;;10.52;80.48;100598.34;5013451;28;846;-62
2021/10/27 00:52:06;;;;;;;;;;;;;;;10.52;80.38;100585.34;5013424;28;858;-62
2021/10/27 00:54:34;;;;;;;;;;;;;;;10.53;80.49;100591.66;4995677;28;1296;-62
2021/10/27 00:57:00;;;;;;;;;;;;;;;10.51;80.47;100588.50;5012553;28;863;-62
2021/10/27 00:59:27;;;;;;;;;;;;;;;10.52;80.39;100581.78;5013196;28;878;-62
2021/10/27 01:01:55;;;;;;;;;;;;;;;10.53;80.08;100588.91;5013194;28;805;-62
2021/10/27 01:04:22;;;;;;;;;;;;;;;10.57;79.31;100593.28;5013911;28;1890;-62
2021/10/27 01:06:49;;;;;;;;;;;;;;;10.59;79.55;100596.47;5013737;28;851;-62
2021/10/27 01:09:17;;;;;;;;;;;;;;;10.61;79.11;100593.31;5013743;28;838;-62
2021/10/27 01:11:44;;;;;;;;;;;;;;;10.60;79.40;100592.53;5013327;28;819;-62
2021/10/27 01:14:12;;;;;;;;;;;;;;;10.58;79.07;100599.59;5013608;28;851;-62
2021/10/27 01:16:38;;;;;;;;;;;;;;;10.53;79.21;100597.19;5013297;28;878;-62
2021/10/27 01:19:06;;;;;;;;;;;;;;;10.47;79.35;100591.22;5013592;28;972;-62
2021/10/27 01:21:32;;;;;;;;;;;;;;;10.42;79.51;100597.91;5013149;28;1380;-62
2021/10/27 01:24:00;;;;;;;;;;;;;;;10.39;79.78;100589.56;5012937;28;1910;-62
2021/10/27 01:26:27;;;;;;;;;;;;;;;10.34;79.96;100587.97;5013145;28;827;-62
2021/10/27 01:28:54;;;;;;;;;;;;;;;10.32;80.09;100590.31;5012699;28;844;-62
2021/10/27 01:31:22;;;;;;;;;;;;;;;10.33;80.03;100585.59;4995285;28;1165;-62
2021/10/27 01:33:48;;;;;;;;;;;;;;;10.33;80.17;100588.38;5012722;28;842;-62
2021/10/27 01:36:19;;;;;;;;;;;;;;;10.34;79.98;100587.97;5012787;28;800;-62
2021/10/27 01:38:45;;;;;;;;;;;;;;;10.34;79.96;100585.19;4994967;28;1319;-62
2021/10/27 01:41:13;;;;;;;;;;;;;;;10.37;80.20;100580.88;5012554;28;807;-62
2021/10/27 01:43:53;;;;;;;;;;;;;;;10.40;79.80;100577.34;5012480;28;1957;-62
2021/10/27 01:46:31;;;;;;;;;;;;;;;10.38;80.14;100571.41;5012538;28;803;-62
2021/10/27 01:48:57;;;;;;;;;;;;;;;10.36;80.09;100566.25;4994812;28;1185;-62
2021/10/27 01:51:25;;;;;;;;;;;;;;;10.40;79.77;100575.38;5012417;28;842;-61
2021/10/27 01:53:52;;;;;;;;;;;;;;;10.42;79.38;100572.25;5012358;28;866;-62
2021/10/27 01:56:20;;;;;;;;;;;;;;;10.43;79.03;100568.28;5012493;28;862;-61
2021/10/27 01:58:47;;;;;;;;;;;;;;;10.44;79.19;100577.41;5012231;28;893;-62
2021/10/27 02:01:13;;;;;;;;;;;;;;;10.47;78.82;100576.63;5012249;28;835;-62
2021/10/27 02:03:40;;;;;;;;;;;;;;;10.44;78.72;100577.41;5012097;28;1957;-62
2021/10/27 02:06:07;;;;;;;;;;;;;;;10.42;78.85;100583.28;5012203;28;842;-62
2021/10/27 02:08:34;;;;;;;;;;;;;;;10.40;79.06;100583.66;5011684;28;870;-62
2021/10/27 02:11:01;;;;;;;;;;;;;;;10.37;79.37;100580.88;5012133;28;859;-62
2021/10/27 02:13:27;;;;;;;;;;;;;;;10.37;79.28;100591.91;5011993;28;851;-62
2021/10/27 02:15:55;;;;;;;;;;;;;;;10.34;79.19;100587.16;5012045;28;934;-62
2021/10/27 02:18:22;;;;;;;;;;;;;;;10.32;79.34;100595.03;5012009;28;971;-62
2021/10/27 02:20:49;;;;;;;;;;;;;;;10.33;79.38;100588.38;5011897;28;847;-62
2021/10/27 02:23:15;;;;;;;;;;;;;;;10.33;79.51;100582.84;5011915;28;1907;-62
2021/10/27 02:25:42;;;;;;;;;;;;;;;10.31;79.33;100585.97;5011691;28;919;-62
2021/10/27 02:28:09;;;;;;;;;;;;;;;10.28;79.46;100580.38;5011889;28;866;-62
2021/10/27 02:30:35;;;;;;;;;;;;;;;10.27;79.45;100587.09;5011737;28;859;-62
2021/10/27 02:33:02;;;;;;;;;;;;;;;10.23;79.19;100581.53;5011819;28;799;-62
2021/10/27 02:35:30;;;;;;;;;;;;;;;10.23;79.37;100589.81;5011736;28;870;-62
2021/10/27 02:37:56;;;;;;;;;;;;;;;10.21;79.47;100592.94;5011800;28;799;-62
2021/10/27 02:40:23;;;;;;;;;;;;;;;10.20;79.48;100585.84;5011732;28;831;-62
2021/10/27 02:42:51;;;;;;;;;;;;;;;10.20;79.39;100585.84;5011634;28;2388;-62
2021/10/27 02:45:18;;;;;;;;;;;;;;;10.20;79.42;100587.81;5011677;28;815;-62
2021/10/27 02:47:45;;;;;;;;;;;;;;;10.18;79.68;100596.47;5011673;28;799;-62
2021/10/27 02:50:13;;;;;;;;;;;;;;;10.17;79.42;100588.56;5011641;28;871;-62
2021/10/27 02:52:41;;;;;;;;;;;;;;;10.17;79.73;100594.88;5011698;28;843;-62
2021/10/27 02:55:07;;;;;;;;;;;;;;;10.16;79.42;100595.28;5011525;28;811;-62
2021/10/27 02:57:34;;;;;;;;;;;;;;;10.12;79.47;100598.00;5011504;28;827;-62
2021/10/27 03:00:00;;;;;;;;;;;;;;;10.08;79.59;100590.84;5011589;28;795;-62
2021/10/27 03:02:27;;;;;;;;;;;;;;;10.05;79.58;100597.94;5011701;28;1894;-62
2021/10/27 03:04:53;;;;;;;;;;;;;;;10.04;79.80;100604.63;5011424;28;1037;-62
2021/10/27 03:07:19;;;;;;;;;;;;;;;10.02;79.80;100610.53;5011525;28;807;-62
2021/10/27 03:09:46;;;;;;;;;;;;;;;10.03;79.77;100611.34;5011497;28;867;-62
2021/10/27 03:12:11;;;;;;;;;;;;;;;10.02;79.93;100610.53;5011402;28;882;-62
2021/10/27 03:14:42;;;;;;;;;;;;;;;10.01;80.06;100606.19;5011429;28;807;-62
2021/10/27 03:17:09;;;;;;;;;;;;;;;10.02;80.05;100618.03;5011378;28;945;-62
2021/10/27 03:19:35;;;;;;;;;;;;;;;10.01;79.79;100613.69;5011364;28;816;-62
2021/10/27 03:22:02;;;;;;;;;;;;;;;10.00;79.86;100617.59;5014499;28;1259;-62
2021/10/27 03:24:29;;;;;;;;;;;;;;;9.99;79.92;100618.78;5015003;28;1938;-62
2021/10/27 03:26:55;;;;;;;;;;;;;;;9.96;79.78;100616.75;5014905;28;800;-62
2021/10/27 03:29:22;;;;;;;;;;;;;;;9.93;80.07;100615.56;5014995;28;835;-62
2021/10/27 03:31:49;;;;;;;;;;;;;;;9.95;79.90;100620.72;5014939;28;894;-62
2021/10/27 03:34:16;;;;;;;;;;;;;;;9.98;79.92;100617.19;5014855;28;804;-62
2021/10/27 03:36:43;;;;;;;;;;;;;;;9.98;79.78;100615.22;5014886;28;835;-62
2021/10/27 03:39:09;;;;;;;;;;;;;;;9.98;79.84;100615.22;5014770;28;831;-62
2021/10/27 03:41:36;;;;;;;;;;;;;;;10.00;79.68;100623.91;5015130;28;866;-62
2021/10/27 03:44:03;;;;;;;;;;;;;;;10.04;79.39;100623.16;5014752;28;1879;-62
2021/10/27 03:46:29;;;;;;;;;;;;;;;10.06;79.48;100620.81;5014655;28;878;-62
2021/10/27 03:48:56;;;;;;;;;;;;;;;10.04;79.24;100610.16;5014845;28;838;-62
2021/10/27 03:51:23;;;;;;;;;;;;;;;10.04;79.05;100610.16;5014571;28;959;-61
2021/10/27 03:53:48;;;;;;;;;;;;;;;10.10;78.61;100616.91;5014651;28;842;-62
2021/10/27 03:56:15;;;;;;;;;;;;;;;10.12;78.47;100622.06;5014511;28;839;-62
2021/10/27 03:58:42;;;;;;;;;;;;;;;10.13;78.05;100618.13;5014581;28;839;-62
2021/10/27 04:01:08;;;;;;;;;;;;;;;10.13;77.87;100621.69;5014607;28;842;-61
2021/10/27 04:03:35;;;;;;;;;;;;;;;10.16;77.82;100625.66;5014571;28;1953;-62
2021/10/27 04:06:02;;;;;;;;;;;;;;;10.15;77.17;100624.06;5014525;28;894;-62
2021/10/27 04:08:28;;;;;;;;;;;;;;;10.11;77.29;100629.53;5015369;28;843;-61
2021/10/27 04:10:55;;;;;;;;;;;;;;;10.11;77.44;100634.28;5014429;28;795;-61
2021/10/27 04:13:22;;;;;;;;;;;;;;;10.13;77.35;100640.22;5014818;28;811;-61
2021/10/27 04:15:49;;;;;;;;;;;;;;;10.13;76.87;100643.78;5014179;28;854;-61
2021/10/27 04:18:16;;;;;;;;;;;;;;;10.08;77.45;100637.81;5014354;28;1196;-62
2021/10/27 04:20:43;;;;;;;;;;;;;;;10.00;77.73;100643.25;5014512;28;747;-61
2021/10/27 04:23:10;;;;;;;;;;;;;;;9.96;78.27;100645.19;5013829;28;1898;-61
2021/10/27 04:25:36;;;;;;;;;;;;;;;9.95;78.15;100640.84;5014451;28;839;-61
2021/10/27 04:28:04;;;;;;;;;;;;;;;9.97;78.15;100634.94;5014058;28;803;-61
2021/10/27 04:30:31;;;;;;;;;;;;;;;9.98;77.76;100642.03;5014455;28;744;-61
2021/10/27 04:32:58;;;;;;;;;;;;;;;9.97;77.91;100645.97;5013450;28;878;-62
2021/10/27 04:35:24;;;;;;;;;;;;;;;9.96;77.85;100641.63;5014427;28;764;-62
2021/10/27 04:37:51;;;;;;;;;;;;;;;9.98;77.63;100647.56;5013975;28;831;-61
2021/10/27 04:40:19;;;;;;;;;;;;;;;9.98;77.58;100640.06;4996112;28;1323;-61
2021/10/27 04:42:46;;;;;;;;;;;;;;;9.98;77.70;100645.59;5013764;28;1951;-61
2021/10/27 04:45:13;;;;;;;;;;;;;;;9.98;77.91;100642.81;5013573;28;1214;-61
2021/10/27 04:47:42;;;;;;;;;;;;;;;10.00;78.03;100646.00;5014492;28;780;-61
2021/10/27 04:50:09;;;;;;;;;;;;;;;10.04;78.03;100648.03;4996027;28;831;-61
2021/10/27 04:52:36;;;;;;;;;;;;;;;10.05;78.12;100652.38;5013839;28;843;-62
2021/10/27 04:55:03;;;;;;;;;;;;;;;10.01;78.29;100655.09;5013488;28;867;-61
2021/10/27 04:57:29;;;;;;;;;;;;;;;10.00;78.42;100659.81;5013606;28;878;-62
2021/10/27 04:59:56;;;;;;;;;;;;;;;10.01;78.63;100658.66;5013629;28;827;-61
2021/10/27 05:02:23;;;;;;;;;;;;;;;10.05;78.63;100667.00;5013437;28;1952;-61
2021/10/27 05:04:51;;;;;;;;;;;;;;;10.08;78.44;100668.97;5013399;28;842;-61
2021/10/27 05:07:18;;;;;;;;;;;;;;;10.12;78.47;100669.03;5013391;28;874;-61
2021/10/27 05:09:45;;;;;;;;;;;;;;;10.14;78.25;100684.06;5013339;28;827;-61
2021/10/27 05:17:45;;;;;;;;;;;;;;;10.16;77.78;100686.44;5933575;23;1643;-62
2021/10/27 05:20:14;;;;;;;;;;;;;;;10.17;77.74;100688.03;5013229;28;798;-61
2021/10/27 05:22:41;;;;;;;;;;;;;;;10.17;77.83;100690.78;4995161;28;2438;-62
2021/10/27 05:25:07;;;;;;;;;;;;;;;10.18;77.31;100695.16;5012860;28;857;-61
2021/10/27 05:27:35;;;;;;;;;;;;;;;10.18;77.74;100695.16;5012860;28;862;-61
2021/10/27 05:30:03;;;;;;;;;;;;;;;10.20;77.60;100698.34;5012877;28;870;-61
2021/10/27 05:32:29;;;;;;;;;;;;;;;10.20;77.59;100699.13;5012764;28;803;-61
2021/10/27 05:34:56;;;;;;;;;;;;;;;10.20;77.62;100698.34;4995066;28;1292;-61
2021/10/27 05:37:22;;;;;;;;;;;;;;;10.22;77.52;100705.06;5012703;28;870;-61
2021/10/27 05:39:49;;;;;;;;;;;;;;;10.24;77.53;100699.13;5012528;28;834;-62
2021/10/27 05:42:20;;;;;;;;;;;;;;;10.25;77.27;100699.97;5012571;28;823;-61
2021/10/27 05:44:49;;;;;;;;;;;;;;;10.25;77.33;100706.28;5011990;28;1878;-61
2021/10/27 05:47:16;;;;;;;;;;;;;;;10.25;77.59;100714.56;5012391;28;815;-61
2021/10/27 05:49:57;;;;;;;;;;;;;;;10.26;77.32;100718.09;5012716;28;826;-61
2021/10/27 05:57:35;;;;;;;;;;;;;;;10.31;76.97;100729.66;5012457;28;723;-61
2021/10/27 06:00:03;;;;;;;;;;;;;;;10.33;76.85;100729.28;5012346;28;933;-61
2021/10/27 06:02:30;;;;;;;;;;;;;;;10.35;76.52;100736.03;5012196;28;1961;-61
2021/10/27 06:04:56;;;;;;;;;;;;;;;10.38;75.94;100737.22;4994575;28;1165;-61
2021/10/27 06:07:23;;;;;;;;;;;;;;;10.43;75.96;100734.09;5012168;28;842;-61
2021/10/27 06:09:50;;;;;;;;;;;;;;;10.44;75.99;100740.47;5012062;28;885;-61
2021/10/27 06:12:18;;;;;;;;;;;;;;;10.45;75.81;100742.03;5012143;28;842;-61
2021/10/27 06:14:45;;;;;;;;;;;;;;;10.47;75.56;100750.75;5012169;28;862;-61
2021/10/27 06:17:12;;;;;;;;;;;;;;;10.45;75.72;100748.34;5012133;28;968;-61
2021/10/27 06:19:39;;;;;;;;;;;;;;;10.48;75.93;100749.59;5011846;28;1270;-61
2021/10/27 06:22:06;;;;;;;;;;;;;;;10.49;75.50;100751.16;5011962;28;865;-61
2021/10/27 06:24:32;;;;;;;;;;;;;;;10.52;75.50;100759.50;5011820;28;1898;-62
2021/10/27 06:26:59;;;;;;;;;;;;;;;10.55;75.37;100760.69;5012094;28;831;-61
2021/10/27 06:29:33;;;;;;;;;;;;;;;10.55;75.45;100761.50;5011856;28;885;-61
2021/10/27 06:32:53;;;;;;;;;;;;;;;10.58;75.15;100768.22;5011873;28;918;-61
2021/10/27 06:34:52;;;;;;;;;;;;;;;10.61;74.83;100770.25;5000986;28;1086;-61
2021/10/27 06:48:19;;;;;;;;;;;;;;;10.75;73.05;100786.19;5011705;28;606;-61
2021/10/27 06:50:45;;;;;;;;;;;;;;;10.81;72.99;100782.69;5011662;28;859;-61
2021/10/27 06:53:12;;;;;;;;;;;;;;;10.89;73.09;100789.09;5011948;28;823;-62
2021/10/27 06:55:40;;;;;;;;;;;;;;;10.96;73.15;100777.28;5014581;28;819;-61
2021/10/27 06:58:08;;;;;;;;;;;;;;;11.06;73.06;100773.81;5015587;28;819;-62
2021/10/27 07:00:50;;;;;;;;;;;;;;;11.17;72.83;100774.69;5015554;28;854;-62
2021/10/27 07:03:35;;;;;;;;;;;;;;;11.28;72.51;100774.00;4997588;28;1957;-62
2021/10/27 07:17:14;;;;;;;;;;;;;;;11.96;68.11;100771.69;5008304;28;1030;-62
2021/10/27 07:19:41;;;;;;;;;;;;;;;12.18;67.69;100767.03;5015028;28;1161;-62
2021/10/27 07:22:10;;;;;;;;;;;;;;;12.40;66.72;100767.91;5015251;28;874;-62
2021/10/27 07:24:37;;;;;;;;;;;;;;;12.56;66.08;100776.66;5015347;28;1981;-61
2021/10/27 07:27:06;;;;;;;;;;;;;;;12.75;65.63;100772.75;5015590;28;759;-62
2021/10/27 07:29:32;;;;;;;;;;;;;;;12.94;64.53;100774.34;5015263;28;858;-62
2021/10/27 07:32:00;;;;;;;;;;;;;;;13.16;63.80;100768.81;5015174;28;811;-62
2021/10/27 07:34:33;;;;;;;;;;;;;;;13.48;62.91;100761.28;5014970;28;861;-62
2021/10/27 07:40:05;;;;;;;;;;;;;;;14.03;60.52;100753.59;5014936;28;664;-62
2021/10/27 07:42:32;;;;;;;;;;;;;;;14.28;58.86;100759.84;5014732;28;1922;-62
2021/10/27 07:44:59;;;;;;;;;;;;;;;14.39;58.34;100759.00;5014668;28;791;-62
2021/10/27 07:47:26;;;;;;;;;;;;;;;14.46;57.95;100759.72;4997053;28;1279;-62
2021/10/27 07:49:52;;;;;;;;;;;;;;;14.37;57.50;100766.94;5014698;28;862;-62
2021/10/27 07:52:19;;;;;;;;;;;;;;;14.38;58.04;100769.34;5014689;28;807;-62
2021/10/27 07:54:46;;;;;;;;;;;;;;;14.36;57.87;100757.81;5014545;28;853;-62
2021/10/27 07:57:12;;;;;;;;;;;;;;;14.25;57.57;100760.66;5014534;28;815;-61
2021/10/27 07:59:39;;;;;;;;;;;;;;;14.39;58.06;100761.78;5014516;28;823;-62
2021/10/27 08:02:06;;;;;;;;;;;;;;;14.66;57.36;100760.06;5014530;28;857;-62
2021/10/27 08:04:33;;;;;;;;;;;;;;;14.76;56.35;100761.16;5014357;28;1954;-62
2021/10/27 08:07:00;;;;;;;;;;;;;;;14.87;55.96;100758.31;5013866;28;835;-62
2021/10/27 08:09:27;;;;;;;;;;;;;;;14.98;55.40;100758.22;5014262;28;783;-62
2021/10/27 08:11:54;;;;;;;;;;;;;;;15.09;54.17;100762.53;5014309;28;792;-62
2021/10/27 08:14:21;;;;;;;;;;;;;;;15.31;54.32;100757.56;5014187;28;823;-62
2021/10/27 08:16:48;;;;;;;;;;;;;;;15.28;53.86;100747.25;5014208;28;834;-62
2021/10/27 08:19:14;;;;;;;;;;;;;;;15.48;54.09;100736.31;4996399;28;1227;-62
2021/10/27 08:21:42;;;;;;;;;;;;;;;15.83;54.05;100741.94;5014193;28;803;-63
2021/10/27 08:24:10;;;;;;;;;;;;;;;15.99;53.46;100741.34;5014011;28;1910;-62
2021/10/27 08:26:37;;;;;;;;;;;;;;;15.98;53.47;100748.13;5013978;28;877;-62
2021/10/27 08:29:12;;;;;;;;;;;;;;;16.07;53.19;100749.22;5013977;28;826;-62
2021/10/27 08:31:43;;;;;;;;;;;;;;;16.41;52.83;100748.38;5013876;28;827;-63
2021/10/27 08:34:14;;;;;;;;;;;;;;;16.50;51.89;100745.84;5013852;28;822;-62
2021/10/27 08:36:42;;;;;;;;;;;;;;;16.53;51.42;100744.22;5013951;28;815;-62
2021/10/27 08:39:09;;;;;;;;;;;;;;;16.40;50.91;100744.00;5013890;28;842;-62
2021/10/27 08:41:37;;;;;;;;;;;;;;;16.41;51.86;100745.59;5014060;28;835;-62
2021/10/27 08:44:04;;;;;;;;;;;;;;;16.71;52.00;100749.56;5013748;28;1882;-62
2021/10/27 08:46:32;;;;;;;;;;;;;;;16.98;51.19;100743.16;5013941;28;875;-62
2021/10/27 08:49:01;;;;;;;;;;;;;;;17.07;50.84;100741.44;5013750;28;799;-62
2021/10/27 08:51:28;;;;;;;;;;;;;;;17.18;50.48;100746.84;5013557;28;795;-63
2021/10/27 08:53:56;;;;;;;;;;;;;;;17.28;50.67;100751.44;5013424;28;858;-63
2021/10/27 08:56:24;;;;;;;;;;;;;;;17.35;48.96;100745.72;5013446;28;866;-62
2021/10/27 08:58:56;;;;;;;;;;;;;;;16.90;48.62;100742.50;4995851;28;867;-62
2021/10/27 09:01:41;;;;;;;;;;;;;;;16.62;49.49;100744.50;5013301;28;815;-63
2021/10/27 09:10:02;;;;;;;;;;;;;;;16.35;48.58;100738.91;5013182;28;692;-63
2021/10/27 09:15:29;;;;;;;;;;;;;;;16.73;48.54;100742.31;5013421;28;664;-63
2021/10/27 09:37:53;;;;;;;;;;;;;;;15.64;51.61;100737.72;5012650;28;677;-62
2021/10/27 09:55:38;;;;;;;;;;;;;;;15.20;52.72;100740.16;5109356;28;628;-61
2021/10/27 10:05:41;;;;;;;;;;;;;;;16.06;51.42;100728.09;5109103;28;636;-61
2021/10/27 10:08:08;;;;;;;;;;;;;;;16.09;51.15;100720.91;5108953;28;822;-61
2021/10/27 10:10:35;;;;;;;;;;;;;;;16.19;50.84;100713.59;5108943;28;849;-62
2021/10/27 10:13:02;;;;;;;;;;;;;;;16.00;50.68;100715.03;5108714;28;877;-61
2021/10/27 10:15:37;;;;;;;;;;;;;;;15.99;50.23;100716.25;5109021;28;818;-61
2021/10/27 10:18:05;;;;;;;;;;;;;;;15.73;50.20;100715.00;5108662;28;1890;-61
2021/10/27 10:20:32;;;;;;;;;;;;;;;15.54;50.90;100703.22;5108684;28;845;-61
2021/10/27 10:23:16;;;;;;;;;;;;;;;15.54;50.86;100708.78;5108668;28;880;-62
2021/10/27 10:25:53;;;;;;;;;;;;;;;15.44;51.27;100706.91;5108610;28;842;-61
2021/10/27 10:28:27;;;;;;;;;;;;;;;15.39;51.17;100701.78;5108559;28;810;-61
2021/10/27 10:30:56;;;;;;;;;;;;;;;15.30;51.25;100705.84;5108651;28;822;-62
2021/10/27 10:33:39;;;;;;;;;;;;;;;15.05;51.75;100703.28;5108510;28;916;-61
2021/10/27 10:36:10;;;;;;;;;;;;;;;14.86;51.81;100703.84;5108402;28;806;-61
2021/10/27 11:23:17;;;;;;;;;;;;;;;14.90;52.03;100685.13;5071659;28;1204;-61
2021/10/27 11:42:38;;;;;;;;;;;;;;;14.69;51.29;100677.75;5093626;28;613;-61
2021/10/27 11:48:08;;;;;;;;;;;;;;;14.47;52.39;100671.53;5093453;28;723;-61
2021/10/27 11:50:37;;;;;;;;;;;;;;;14.44;52.95;100664.78;5093466;28;853;-61
2021/10/27 11:53:06;;;;;;;;;;;;;;;14.15;54.06;100674.53;5094057;28;833;-61
2021/10/27 11:55:35;;;;;;;;;;;;;;;13.97;54.86;100680.94;5093384;28;857;-60
2021/10/27 11:58:02;;;;;;;;;;;;;;;13.88;55.25;100675.03;5093227;28;893;-61
2021/10/27 12:00:38;;;;;;;;;;;;;;;13.82;55.56;100679.44;5093222;28;872;-61
2021/10/27 12:03:19;;;;;;;;;;;;;;;13.70;55.97;100677.91;5092232;28;810;-61
2021/10/27 12:19:25;;;;;;;;;;;;;;;13.73;55.77;100682.66;5092729;28;1881;-61
2021/10/27 12:22:00;;;;;;;;;;;;;;;13.82;55.76;100682.22;5092873;28;818;-61
2021/10/27 12:24:28;;;;;;;;;;;;;;;13.87;55.74;100681.81;5092727;28;797;-61
2021/10/27 12:27:05;;;;;;;;;;;;;;;13.89;55.36;100677.41;5092785;28;814;-61
2021/10/27 12:29:33;;;;;;;;;;;;;;;13.93;55.21;100682.94;5092644;28;814;-61
2021/10/27 12:32:16;;;;;;;;;;;;;;;14.01;55.00;100680.94;5092582;28;814;-61
2021/10/27 12:35:06;;;;;;;;;;;;;;;14.00;55.06;100680.16;5093371;28;755;-61
2021/10/27 12:40:27;;;;;;;;;;;;;;;13.91;55.05;100692.88;5092145;28;2312;-61
2021/10/27 12:43:07;;;;;;;;;;;;;;;13.87;55.10;100684.59;5092402;28;786;-61
2021/10/27 12:45:45;;;;;;;;;;;;;;;13.88;55.31;100684.16;5092664;28;826;-61
2021/10/27 12:48:17;;;;;;;;;;;;;;;13.95;55.26;100683.34;5092412;28;790;-61
2021/10/27 12:50:56;;;;;;;;;;;;;;;13.98;55.45;100685.31;5092339;28;813;-61
2021/10/27 12:53:39;;;;;;;;;;;;;;;14.06;55.74;100683.28;5092292;28;913;-61
2021/10/27 12:56:14;;;;;;;;;;;;;;;14.12;55.57;100683.66;5092182;28;813;-61
2021/10/27 12:58:43;;;;;;;;;;;;;;;13.86;55.48;100689.31;5092254;28;1947;-61
2021/10/27 13:01:28;;;;;;;;;;;;;;;13.79;55.71;100692.16;5092232;28;810;-61
2021/10/27 13:14:42;;;;;;;;;;;;;;;13.71;55.27;100685.03;5091659;28;746;-61
2021/10/27 13:30:24;;;;;;;;;;;;;;;13.59;55.40;100704.91;5092013;28;656;-61
2021/10/27 13:32:52;;;;;;;;;;;;;;;13.46;55.60;100699.00;5091699;28;870;-60
2021/10/27 13:35:20;;;;;;;;;;;;;;;13.45;55.94;100698.19;5091647;28;826;-61
2021/10/27 13:37:47;;;;;;;;;;;;;;;13.42;56.25;100704.56;5090314;28;1179;-61
2021/10/27 13:40:15;;;;;;;;;;;;;;;13.32;56.12;100702.59;5091308;28;1906;-61
2021/10/27 14:10:03;;;;;;;;;;;;;;;12.92;58.40;100695.47;5091246;28;632;-61
2021/10/27 14:18:50;;;;;;;;;;;;;;;12.87;58.86;100689.13;5028906;28;1885;-61
2021/10/27 14:40:45;;;;;;;;;;;;;;;12.57;60.55;100700.63;5094806;28;1906;-61
2021/10/27 14:47:28;;;;;;;;;;;;;;;12.45;60.83;100699.00;5095372;28;604;-61
2021/10/27 15:21:49;;;;;;;;;;;;;;;11.87;61.58;100718.59;5094069;28;624;-61
2021/10/27 15:30:20;;;;;;;;;;;;;;;11.32;63.49;100723.03;5093899;28;680;-61
2021/10/27 15:35:34;;;;;;;;;;;;;;;10.87;64.11;100729.81;5093702;28;882;-61
2021/10/27 15:51:13;;;;;;;;;;;;;;;9.88;69.83;100742.13;5093429;28;671;-61
2021/10/27 15:53:40;;;;;;;;;;;;;;;9.88;69.65;100740.16;5093299;28;842;-61
2021/10/27 15:56:07;;;;;;;;;;;;;;;9.94;69.84;100741.44;5093402;28;830;-61
2021/10/27 15:58:34;;;;;;;;;;;;;;;9.97;69.37;100740.66;5093161;28;1894;-61
2021/10/27 16:01:01;;;;;;;;;;;;;;;9.96;69.36;100746.56;5093112;28;900;-61
2021/10/27 16:03:28;;;;;;;;;;;;;;;9.89;69.41;100755.56;5093487;28;818;-61
2021/10/27 16:05:56;;;;;;;;;;;;;;;9.77;69.85;100750.25;5092947;28;865;-61
2021/10/27 16:08:26;;;;;;;;;;;;;;;9.61;70.25;100762.28;5093007;28;873;-61
2021/10/27 16:10:53;;;;;;;;;;;;;;;9.51;70.58;100751.09;5093118;28;855;-61
2021/10/27 16:13:20;;;;;;;;;;;;;;;9.55;70.60;100752.72;5092920;28;810;-61
2021/10/27 16:16:00;;;;;;;;;;;;;;;9.58;70.77;100752.00;5074656;28;1185;-61
2021/10/27 16:18:31;;;;;;;;;;;;;;;9.63;70.76;100756.41;5092659;28;1890;-61
2021/10/27 16:20:59;;;;;;;;;;;;;;;9.65;70.76;100761.56;5092862;28;834;-61
2021/10/27 16:23:25;;;;;;;;;;;;;;;9.68;70.70;100760.78;5108402;28;1206;-61
2021/10/27 16:25:53;;;;;;;;;;;;;;;9.72;70.62;100767.16;5092704;28;873;-61
2021/10/27 16:28:20;;;;;;;;;;;;;;;9.77;70.15;100764.88;5092705;28;894;-61
2021/10/27 16:30:46;;;;;;;;;;;;;;;9.82;70.14;100766.50;5092892;28;821;-61
2021/10/27 16:33:14;;;;;;;;;;;;;;;9.80;70.08;100764.13;5074332;28;1319;-61
2021/10/27 16:35:43;;;;;;;;;;;;;;;9.77;70.13;100769.59;5092433;28;774;-61
2021/10/27 16:38:09;;;;;;;;;;;;;;;9.73;70.03;100768.75;5092220;28;1192;-61
2021/10/27 16:40:36;;;;;;;;;;;;;;;9.69;70.28;100771.47;5092577;28;1918;-61
2021/10/27 16:43:02;;;;;;;;;;;;;;;9.61;70.69;100767.78;5092415;28;901;-61
2021/10/27 16:45:29;;;;;;;;;;;;;;;9.51;70.96;100768.44;5092374;28;865;-60
2021/10/27 16:47:56;;;;;;;;;;;;;;;9.40;71.49;100770.25;5091822;28;925;-61
2021/10/27 16:50:23;;;;;;;;;;;;;;;9.40;71.51;100775.75;5092319;28;818;-61
2021/10/27 16:52:50;;;;;;;;;;;;;;;9.39;71.35;100771.41;5091071;28;1338;-61
2021/10/27 16:55:20;;;;;;;;;;;;;;;9.34;71.97;100778.03;5092191;28;810;-61
2021/10/27 16:57:48;;;;;;;;;;;;;;;9.29;72.27;100781.09;5092341;28;872;-61
2021/10/27 17:00:18;;;;;;;;;;;;;;;9.32;72.23;100783.13;5073875;28;1941;-61
2021/10/27 17:02:45;;;;;;;;;;;;;;;9.41;72.01;100782.88;5092063;28;849;-61
2021/10/27 17:05:12;;;;;;;;;;;;;;;9.43;71.85;100790.78;5091877;28;799;-61
2021/10/27 17:07:40;;;;;;;;;;;;;;;9.38;72.12;100791.88;5091928;28;790;-61
2021/10/27 17:10:08;;;;;;;;;;;;;;;9.34;72.53;100791.03;5091915;28;790;-61
2021/10/27 17:12:36;;;;;;;;;;;;;;;9.32;72.61;100791.41;5107679;28;1269;-60
2021/10/27 17:15:03;;;;;;;;;;;;;;;9.30;72.85;100790.19;5091860;28;875;-61
2021/10/27 17:17:30;;;;;;;;;;;;;;;9.25;72.92;100790.50;5092189;28;823;-61
2021/10/27 17:19:57;;;;;;;;;;;;;;;9.21;72.95;100790.44;5091846;28;1975;-61
2021/10/27 17:22:26;;;;;;;;;;;;;;;9.17;73.32;100790.41;5092074;28;840;-60
2021/10/27 17:24:53;;;;;;;;;;;;;;;9.16;73.32;100799.03;5091816;28;885;-61
2021/10/27 17:27:21;;;;;;;;;;;;;;;9.16;73.39;100808.09;5073767;28;1199;-61
2021/10/27 17:29:49;;;;;;;;;;;;;;;9.19;73.43;100801.81;5091799;28;910;-61
2021/10/27 17:32:16;;;;;;;;;;;;;;;9.23;73.32;100792.84;5091670;28;846;-61
2021/10/27 17:34:42;;;;;;;;;;;;;;;9.31;73.29;100789.03;5091599;28;825;-61
2021/10/27 17:37:10;;;;;;;;;;;;;;;9.38;73.08;100797.41;5091935;28;877;-61
2021/10/27 17:39:41;;;;;;;;;;;;;;;9.46;72.91;100788.06;5091470;28;1905;-61
2021/10/27 17:42:12;;;;;;;;;;;;;;;9.57;72.76;100794.53;5091535;28;857;-61
2021/10/27 17:44:41;;;;;;;;;;;;;;;9.62;72.69;100793.44;5091612;28;802;-61
2021/10/27 17:47:11;;;;;;;;;;;;;;;9.65;72.86;100798.22;5091538;28;842;-61
2021/10/27 18:00:05;;;;;;;;;;;;;;;9.44;73.41;100809.72;5091686;28;1882;-61
2021/10/27 18:02:34;;;;;;;;;;;;;;;9.42;73.43;100803.78;5095564;28;846;-61
2021/10/27 18:05:02;;;;;;;;;;;;;;;9.42;73.62;100811.28;5095344;28;882;-61
2021/10/27 18:07:31;;;;;;;;;;;;;;;9.42;73.72;100819.53;5095419;28;817;-61
2021/10/27 18:09:58;;;;;;;;;;;;;;;9.45;73.89;100813.28;5095377;28;842;-61
2021/10/27 18:12:26;;;;;;;;;;;;;;;9.51;73.96;100817.31;5095416;28;817;-61
2021/10/27 18:14:55;;;;;;;;;;;;;;;9.58;73.98;100823.75;5095332;28;814;-61
2021/10/27 18:17:25;;;;;;;;;;;;;;;9.66;73.83;100824.66;5095734;28;810;-61